createdAt,value
2019-01-26T00:02:12.399Z,48.93
2019-01-26T00:04:38.439Z,42.50
2019-01-26T00:07:04.511Z,45.47
2019-01-26T00:09:30.552Z,50.40
2019-01-26T00:11:56.596Z,45.90
2019-01-26T00:14:22.650Z,47.93
2019-01-26T00:16:48.741Z,47.77
2019-01-26T00:19:14.775Z,46.67
2019-01-26T00:21:40.851Z,43.27
2019-01-26T00:24:06.943Z,46.30
2019-01-26T00:26:36.366Z,49.33
2019-01-26T00:29:00.948Z,43.40
2019-01-26T00:31:26.991Z,43.73
2019-01-26T00:33:53.035Z,46.80
2019-01-26T00:36:19.096Z,45.23
2019-01-26T00:38:45.483Z,50.27
2019-01-26T00:41:11.822Z,47.20
2019-01-26T00:43:38.143Z,45.60
2019-01-26T00:46:04.387Z,43.97
2019-01-26T00:48:30.432Z,45.67
2019-01-26T00:50:56.487Z,40.37
2019-01-26T00:53:22.523Z,41.67
2019-01-26T00:55:48.559Z,48.90
2019-01-26T00:58:14.615Z,44.33
2019-01-26T01:00:40.655Z,41.57
2019-01-26T01:03:06.699Z,46.93
2019-01-26T01:05:32.763Z,43.70
2019-01-26T01:07:58.804Z,43.10
2019-01-26T01:10:24.841Z,49.23
2019-01-26T01:12:50.900Z,48.63
2019-01-26T01:15:21.014Z,38.83
2019-01-26T01:17:47.053Z,42.20
2019-01-26T01:20:13.710Z,45.93
2019-01-26T01:22:39.957Z,43.33
2019-01-26T01:25:08.420Z,43.90
2019-01-26T01:27:35.857Z,44.13
2019-01-26T01:30:14.391Z,44.17
2019-01-26T01:32:41.028Z,48.83
2019-01-26T01:35:07.168Z,46.47
2019-01-26T01:37:33.219Z,48.23
2019-01-26T01:39:59.608Z,45.20
2019-01-26T01:42:25.650Z,43.13
2019-01-26T01:44:51.689Z,45.90
2019-01-26T01:47:17.759Z,46.10
2019-01-26T01:49:43.795Z,41.07
2019-01-26T01:52:09.831Z,39.73
2019-01-26T01:54:35.887Z,46.57
2019-01-26T01:57:01.934Z,42.00
2019-01-26T01:59:27.973Z,47.53
2019-01-26T02:01:54.027Z,43.90
2019-01-26T02:04:20.271Z,38.23
2019-01-26T02:06:46.312Z,38.00
2019-01-26T02:09:12.371Z,39.37
2019-01-26T02:11:38.408Z,40.60
2019-01-26T02:14:04.552Z,40.53
2019-01-26T02:16:30.603Z,43.37
2019-01-26T02:18:56.643Z,44.03
2019-01-26T02:21:22.683Z,38.20
2019-01-26T02:23:48.747Z,41.17
2019-01-26T02:26:14.795Z,41.07
2019-01-26T02:28:40.835Z,37.37
2019-01-26T02:31:07.219Z,36.63
2019-01-26T02:33:33.558Z,39.20
2019-01-26T02:35:59.597Z,38.37
2019-01-26T02:38:25.706Z,35.13
2019-01-26T02:40:52.382Z,39.67
2019-01-26T02:43:18.803Z,39.90
2019-01-26T02:45:45.199Z,43.63
2019-01-26T02:48:11.240Z,41.57
2019-01-26T02:50:37.282Z,40.27
2019-01-26T02:53:03.341Z,42.77
2019-01-26T02:55:29.384Z,38.90
2019-01-26T02:57:55.416Z,40.23
2019-01-26T03:00:22.279Z,42.97
2019-01-26T03:02:48.623Z,39.13
2019-01-26T03:05:14.664Z,37.13
2019-01-26T03:07:40.721Z,36.63
2019-01-26T03:10:15.940Z,37.07
2019-01-26T03:12:41.980Z,39.07
2019-01-26T03:15:11.413Z,36.13
2019-01-26T03:17:37.538Z,34.20
2019-01-26T03:20:07.186Z,42.77
2019-01-26T03:22:33.242Z,36.97
2019-01-26T03:24:59.278Z,34.47
2019-01-26T03:27:25.333Z,34.23
2019-01-26T03:29:51.388Z,37.77
2019-01-26T03:32:17.766Z,39.23
2019-01-26T03:34:43.803Z,37.43
2019-01-26T03:37:10.049Z,34.67
2019-01-26T03:39:36.098Z,34.43
2019-01-26T03:42:02.143Z,36.87
2019-01-26T03:44:28.211Z,33.77
2019-01-26T03:46:54.518Z,34.43
2019-01-26T03:49:20.856Z,31.00
2019-01-26T03:51:46.908Z,31.23
2019-01-26T03:54:12.952Z,35.07
2019-01-26T03:56:39.301Z,30.67
2019-01-26T03:59:05.358Z,30.77
2019-01-26T04:01:31.598Z,29.73
2019-01-26T04:03:57.631Z,25.83
2019-01-26T04:06:24.129Z,33.77
2019-01-26T04:08:50.173Z,32.13
2019-01-26T04:11:16.219Z,33.20
2019-01-26T04:13:42.289Z,34.17
2019-01-26T04:16:08.635Z,26.00
2019-01-26T04:18:34.675Z,30.50
2019-01-26T04:21:00.727Z,27.17
2019-01-26T04:23:26.767Z,29.40
2019-01-26T04:25:52.826Z,31.60
2019-01-26T04:28:18.859Z,28.30
2019-01-26T04:30:45.183Z,28.90
2019-01-26T04:33:11.239Z,31.10
2019-01-26T04:35:37.639Z,27.63
2019-01-26T04:38:03.692Z,28.10
2019-01-26T04:40:29.733Z,25.60
2019-01-26T04:42:55.780Z,28.60
2019-01-26T04:45:22.055Z,25.93
2019-01-26T04:47:48.092Z,24.50
2019-01-26T04:50:16.436Z,26.93
2019-01-26T04:52:42.508Z,26.27
2019-01-26T04:55:08.944Z,29.83
2019-01-26T04:57:34.987Z,26.77
2019-01-26T05:00:01.051Z,30.17
2019-01-26T05:02:27.092Z,25.73
2019-01-26T05:04:53.123Z,25.43
2019-01-26T05:07:19.181Z,26.10
2019-01-26T05:09:45.223Z,23.83
2019-01-26T05:12:11.263Z,24.67
2019-01-26T05:14:37.312Z,23.10
2019-01-26T05:17:03.349Z,25.83
2019-01-26T05:19:29.412Z,23.37
2019-01-26T05:21:55.560Z,26.73
2019-01-26T05:24:21.592Z,26.67
2019-01-26T05:26:47.634Z,24.23
2019-01-26T05:29:13.703Z,25.87
2019-01-26T05:31:39.748Z,25.50
2019-01-26T05:34:05.799Z,24.80
2019-01-26T05:36:31.858Z,24.43
2019-01-26T05:38:57.899Z,22.33
2019-01-26T05:41:23.939Z,23.97
2019-01-26T05:43:50.009Z,23.90
2019-01-26T05:46:16.047Z,23.87
2019-01-26T05:48:42.091Z,21.77
2019-01-26T05:51:08.154Z,24.17
2019-01-26T05:53:34.195Z,25.60
2019-01-26T05:56:00.239Z,19.43
2019-01-26T05:58:26.291Z,24.57
2019-01-26T06:00:52.332Z,26.63
2019-01-26T06:03:18.364Z,28.67
2019-01-26T06:05:44.437Z,28.20
2019-01-26T06:08:10.471Z,28.27
2019-01-26T06:10:36.507Z,24.57
2019-01-26T06:13:02.877Z,25.93
2019-01-26T06:15:28.915Z,25.30
2019-01-26T06:17:55.430Z,24.90
2019-01-26T06:20:22.055Z,26.53
2019-01-26T06:22:48.095Z,27.17
2019-01-26T06:25:16.449Z,31.97
2019-01-26T06:27:42.595Z,29.10
2019-01-26T06:30:12.043Z,25.00
2019-01-26T06:32:38.076Z,28.20
2019-01-26T06:35:05.347Z,27.70
2019-01-26T06:37:31.388Z,26.13
2019-01-26T06:39:57.435Z,26.27
2019-01-26T06:42:23.488Z,26.67
2019-01-26T06:44:49.851Z,26.60
2019-01-26T06:47:15.900Z,25.67
2019-01-26T06:49:42.210Z,23.57
2019-01-26T06:52:08.252Z,28.03
2019-01-26T06:54:34.303Z,23.40
2019-01-26T06:57:00.348Z,29.03
2019-01-26T06:59:26.391Z,26.30
2019-01-26T07:01:52.477Z,26.77
2019-01-26T07:04:29.564Z,27.10
2019-01-26T07:07:05.810Z,24.03
2019-01-26T07:09:31.847Z,24.40
2019-01-26T07:11:57.891Z,21.83
2019-01-26T07:14:24.253Z,23.30
2019-01-26T07:16:50.291Z,22.73
2019-01-26T07:19:16.356Z,26.07
2019-01-26T07:21:42.391Z,25.13
2019-01-26T07:24:08.447Z,25.23
2019-01-26T07:26:34.486Z,23.80
2019-01-26T07:29:00.643Z,20.90
2019-01-26T07:31:26.684Z,23.27
2019-01-26T07:33:52.731Z,21.97
2019-01-26T07:36:18.792Z,20.90
2019-01-26T07:38:44.836Z,19.63
2019-01-26T07:41:10.891Z,19.60
2019-01-26T07:43:36.933Z,22.13
2019-01-26T07:46:03.775Z,17.77
2019-01-26T07:48:29.812Z,16.97
2019-01-26T07:51:15.752Z,20.27
2019-01-26T07:53:42.127Z,18.53
2019-01-26T07:56:08.170Z,16.13
2019-01-26T07:58:34.479Z,18.33
2019-01-26T08:01:00.808Z,20.93
2019-01-26T08:03:26.959Z,18.60
2019-01-26T08:05:53.006Z,17.30
2019-01-26T08:08:19.060Z,15.37
2019-01-26T08:10:51.147Z,17.87
2019-01-26T08:13:17.195Z,22.97
2019-01-26T08:15:43.603Z,19.20
2019-01-26T08:18:09.647Z,17.27
2019-01-26T08:20:35.715Z,18.40
2019-01-26T08:23:01.876Z,14.17
2019-01-26T08:25:27.924Z,19.30
2019-01-26T08:27:54.010Z,19.73
2019-01-26T08:30:21.651Z,18.27
2019-01-26T08:32:48.335Z,18.93
2019-01-26T08:35:14.824Z,20.33
2019-01-26T08:37:40.859Z,19.80
2019-01-26T08:40:09.924Z,23.13
2019-01-26T08:42:55.864Z,20.87
2019-01-26T08:45:22.208Z,21.00
2019-01-26T08:47:48.244Z,21.87
2019-01-26T08:50:16.687Z,24.07
2019-01-26T08:52:42.847Z,23.60
2019-01-26T08:55:10.187Z,25.93
2019-01-26T08:57:36.228Z,26.23
2019-01-26T09:00:05.892Z,24.50
2019-01-26T09:02:33.839Z,26.27
2019-01-26T09:05:00.138Z,29.83
2019-01-26T09:07:26.443Z,24.63
2019-01-26T09:09:52.485Z,30.53
2019-01-26T09:12:18.520Z,27.13
2019-01-26T09:14:44.928Z,25.87
2019-01-26T09:17:10.968Z,30.73
2019-01-26T09:19:38.230Z,27.77
2019-01-26T09:22:04.713Z,30.13
2019-01-26T09:24:30.755Z,30.97
2019-01-26T09:26:56.849Z,25.93
2019-01-26T09:29:22.987Z,29.13
2019-01-26T09:31:49.045Z,28.60
2019-01-26T09:34:15.080Z,28.57
2019-01-26T09:36:41.128Z,24.23
2019-01-26T09:39:07.673Z,24.47
2019-01-26T09:41:33.732Z,22.63
2019-01-26T09:43:59.775Z,23.47
2019-01-26T09:46:25.814Z,20.93
2019-01-26T09:48:52.207Z,25.53
2019-01-26T09:51:18.247Z,24.77
2019-01-26T09:53:44.311Z,21.77
2019-01-26T09:56:10.347Z,20.00
2019-01-26T09:58:36.399Z,25.00
2019-01-26T10:01:05.310Z,24.20
2019-01-26T10:03:31.367Z,20.83
2019-01-26T10:05:57.414Z,21.40
2019-01-26T10:08:23.472Z,19.53
2019-01-26T10:10:49.507Z,22.20
2019-01-26T10:13:15.723Z,20.50
2019-01-26T10:15:41.963Z,20.37
2019-01-26T10:18:08.042Z,20.87
2019-01-26T10:20:55.881Z,20.00
2019-01-26T10:23:21.936Z,18.77
2019-01-26T10:25:48.856Z,21.77
2019-01-26T10:28:15.512Z,21.57
2019-01-26T10:30:44.149Z,20.10
2019-01-26T10:33:10.308Z,22.73
2019-01-26T10:35:44.129Z,22.50
2019-01-26T10:38:10.448Z,20.83
2019-01-26T10:40:40.930Z,20.47
2019-01-26T10:43:07.271Z,19.63
2019-01-26T10:45:33.512Z,22.10
2019-01-26T10:47:59.895Z,19.77
2019-01-26T10:50:26.099Z,22.40
2019-01-26T10:52:52.164Z,23.43
2019-01-26T10:55:18.808Z,22.23
2019-01-26T10:57:44.863Z,20.47
2019-01-26T11:00:14.607Z,21.30
2019-01-26T11:02:41.027Z,21.17
2019-01-26T11:05:07.901Z,23.70
2019-01-26T11:07:33.950Z,23.73
2019-01-26T11:09:59.986Z,27.47
2019-01-26T11:12:26.056Z,31.47
2019-01-26T11:14:52.103Z,34.13
2019-01-26T11:17:18.135Z,31.27
2019-01-26T11:19:44.203Z,43.83
2019-01-26T11:22:10.540Z,40.27
2019-01-26T11:24:36.585Z,40.80
2019-01-26T11:27:03.073Z,42.13
2019-01-26T11:29:29.131Z,44.70
2019-01-26T11:31:55.173Z,41.83
2019-01-26T11:34:21.231Z,42.93
2019-01-26T11:36:47.603Z,46.60
2019-01-26T11:39:13.649Z,42.30
2019-01-26T11:41:39.819Z,41.33
2019-01-26T11:44:06.284Z,39.47
2019-01-26T11:46:32.325Z,34.23
2019-01-26T11:48:58.388Z,35.87
2019-01-26T11:51:26.331Z,35.37
2019-01-26T11:53:58.417Z,36.43
2019-01-26T11:56:44.571Z,31.17
2019-01-26T11:59:10.615Z,29.67
2019-01-26T12:01:41.375Z,28.57
2019-01-26T12:04:27.262Z,26.43
2019-01-26T12:06:55.215Z,28.20
2019-01-26T12:09:21.259Z,27.37
2019-01-26T12:11:47.319Z,25.17
2019-01-26T12:14:13.361Z,24.40
2019-01-26T12:16:39.427Z,20.87
2019-01-26T12:19:05.490Z,21.23
2019-01-26T12:21:31.539Z,23.67
2019-01-26T12:23:57.615Z,19.93
2019-01-26T12:26:23.864Z,18.27
2019-01-26T12:28:49.918Z,14.40
2019-01-26T12:31:15.979Z,17.63
2019-01-26T12:33:42.040Z,14.20
2019-01-26T12:36:08.191Z,13.23
2019-01-26T12:38:34.313Z,14.73
2019-01-26T12:41:00.351Z,13.03
2019-01-26T12:43:26.400Z,11.50
2019-01-26T12:45:52.466Z,13.67
2019-01-26T12:48:18.507Z,10.63
2019-01-26T12:50:44.561Z,10.90
2019-01-26T12:53:10.627Z,10.03
2019-01-26T12:55:36.677Z,9.20
2019-01-26T12:58:03.123Z,10.00
2019-01-26T13:00:29.188Z,9.10
2019-01-26T13:02:55.233Z,9.53
2019-01-26T13:05:21.368Z,9.10
2019-01-26T13:07:47.443Z,13.07
2019-01-26T13:10:17.345Z,9.90
2019-01-26T13:12:43.465Z,10.50
2019-01-26T13:15:15.229Z,11.00
2019-01-26T13:17:37.572Z,11.73
2019-01-26T13:20:07.449Z,10.93
2019-01-26T13:22:33.760Z,11.10
2019-01-26T13:25:00.198Z,11.80
2019-01-26T13:27:26.356Z,11.90
2019-01-26T13:29:52.391Z,11.03
2019-01-26T13:32:18.431Z,11.93
2019-01-26T13:34:44.491Z,11.63
2019-01-26T13:37:10.531Z,13.87
2019-01-26T13:39:36.586Z,13.37
2019-01-26T13:42:02.947Z,12.10
2019-01-26T13:44:28.987Z,12.57
2019-01-26T13:46:55.029Z,12.63
2019-01-26T13:49:21.092Z,11.10
2019-01-26T13:51:47.133Z,8.77
2019-01-26T13:54:13.181Z,10.67
2019-01-26T13:56:39.516Z,7.97
2019-01-26T13:59:05.563Z,8.70
2019-01-26T14:01:31.591Z,7.63
2019-01-26T14:03:57.648Z,8.33
2019-01-26T14:06:23.695Z,7.67
2019-01-26T14:08:49.737Z,8.33
2019-01-26T14:11:15.791Z,9.37
2019-01-26T14:13:41.825Z,8.37
2019-01-26T14:16:07.885Z,8.63
2019-01-26T14:18:33.911Z,9.13
2019-01-26T14:20:59.971Z,9.17
2019-01-26T14:23:26.011Z,8.27
2019-01-26T14:25:52.060Z,9.77
2019-01-26T14:28:18.123Z,9.87
2019-01-26T14:30:47.771Z,8.57
2019-01-26T14:33:13.820Z,9.47
2019-01-26T14:35:39.984Z,9.00
2019-01-26T14:38:06.019Z,8.63
2019-01-26T14:40:32.575Z,8.07
2019-01-26T14:42:58.638Z,8.47
2019-01-26T14:45:24.688Z,8.80
2019-01-26T14:47:50.752Z,10.57
2019-01-26T14:50:17.896Z,8.33
2019-01-26T14:52:44.441Z,9.40
2019-01-26T14:55:19.567Z,8.93
2019-01-26T14:57:45.710Z,9.13
2019-01-26T15:00:21.415Z,9.20
2019-01-26T15:02:47.558Z,8.33
2019-01-26T15:05:13.797Z,8.47
2019-01-26T15:07:40.081Z,8.43
2019-01-26T15:10:09.139Z,7.93
2019-01-26T15:12:35.259Z,8.43
2019-01-26T15:15:01.324Z,8.03
2019-01-26T15:17:27.355Z,8.57
2019-01-26T15:19:53.396Z,7.40
2019-01-26T15:22:19.451Z,8.10
2019-01-26T15:24:45.515Z,7.27
2019-01-26T15:27:14.247Z,6.17
2019-01-26T15:29:40.645Z,6.80
2019-01-26T15:32:06.699Z,6.73
2019-01-26T15:34:32.739Z,8.77
2019-01-26T15:36:58.803Z,6.77
2019-01-26T15:39:24.843Z,6.57
2019-01-26T15:41:50.899Z,7.60
2019-01-26T15:44:16.955Z,6.00
2019-01-26T15:46:43.424Z,6.60
2019-01-26T15:49:09.482Z,8.47
2019-01-26T15:51:35.531Z,5.80
2019-01-26T15:54:01.573Z,5.57
2019-01-26T15:56:27.617Z,5.83
2019-01-26T15:58:53.674Z,6.00
2019-01-26T16:01:19.715Z,6.67
2019-01-26T16:03:45.752Z,5.00
2019-01-26T16:06:11.811Z,6.27
2019-01-26T16:08:37.859Z,5.17
2019-01-26T16:11:03.903Z,5.40
2019-01-26T16:13:29.967Z,6.23
2019-01-26T16:15:56.001Z,7.13
2019-01-26T16:18:22.176Z,6.80
2019-01-26T16:20:48.236Z,5.20
2019-01-26T16:23:14.278Z,5.43
2019-01-26T16:25:40.614Z,5.73
2019-01-26T16:28:07.219Z,6.60
2019-01-26T16:30:33.780Z,6.30
2019-01-26T16:32:59.820Z,6.33
2019-01-26T16:35:26.272Z,6.13
2019-01-26T16:37:52.314Z,5.97
2019-01-26T16:40:30.188Z,6.30
2019-01-26T16:42:56.245Z,6.90
2019-01-26T16:45:24.894Z,6.60
2019-01-26T16:47:51.412Z,7.47
2019-01-26T16:50:27.570Z,8.40
2019-01-26T16:52:50.411Z,9.13
2019-01-26T16:55:17.351Z,8.97
2019-01-26T16:57:43.416Z,9.07
2019-01-26T17:00:13.259Z,9.03
2019-01-26T17:02:39.300Z,8.93
2019-01-26T17:05:07.763Z,9.13
2019-01-26T17:07:33.814Z,9.47
2019-01-26T17:09:59.859Z,9.13
2019-01-26T17:12:25.924Z,8.40
2019-01-26T17:14:51.960Z,8.87
2019-01-26T17:17:18.005Z,9.03
2019-01-26T17:19:44.068Z,7.87
2019-01-26T17:22:10.127Z,8.77
2019-01-26T17:24:36.162Z,8.47
2019-01-26T17:27:02.413Z,8.10
2019-01-26T17:29:28.468Z,9.87
2019-01-26T17:31:54.507Z,9.50
2019-01-26T17:34:20.547Z,8.53
2019-01-26T17:36:46.607Z,10.47
2019-01-26T17:39:12.651Z,11.37
2019-01-26T17:41:38.695Z,11.10
2019-01-26T17:44:05.084Z,11.70
2019-01-26T17:46:31.144Z,10.70
2019-01-26T17:48:57.167Z,11.77
2019-01-26T17:51:23.223Z,12.07
2019-01-26T17:53:49.585Z,12.43
2019-01-26T17:56:15.621Z,12.27
2019-01-26T17:58:41.679Z,12.10
2019-01-26T18:01:09.795Z,12.97
2019-01-26T18:03:37.048Z,12.53
2019-01-26T18:06:03.504Z,12.03
2019-01-26T18:08:29.539Z,11.80
2019-01-26T18:10:55.620Z,11.90
2019-01-26T18:13:21.663Z,11.53
2019-01-26T18:15:47.708Z,12.30
2019-01-26T18:18:13.779Z,11.90
2019-01-26T18:20:39.822Z,11.80
2019-01-26T18:23:06.160Z,11.30
2019-01-26T18:25:37.147Z,11.23
2019-01-26T18:28:03.389Z,11.07
2019-01-26T18:30:35.175Z,10.13
2019-01-26T18:33:01.243Z,10.43
2019-01-26T18:35:27.294Z,10.50
2019-01-26T18:37:53.631Z,9.83
2019-01-26T18:40:24.811Z,10.50
2019-01-26T18:42:51.159Z,9.77
2019-01-26T18:45:19.424Z,9.77
2019-01-26T18:47:46.940Z,9.33
2019-01-26T18:50:18.707Z,9.97
2019-01-26T18:52:44.762Z,9.73
2019-01-26T18:55:10.907Z,10.17
2019-01-26T18:57:36.961Z,11.10
2019-01-26T19:00:12.392Z,10.10
2019-01-26T19:02:38.447Z,10.93
2019-01-26T19:05:08.290Z,11.13
2019-01-26T19:07:34.339Z,10.83
2019-01-26T19:10:00.392Z,10.97
2019-01-26T19:12:26.431Z,10.57
2019-01-26T19:14:52.785Z,11.07
2019-01-26T19:17:19.420Z,11.27
2019-01-26T19:19:45.747Z,11.60
2019-01-26T19:22:11.787Z,11.17
2019-01-26T19:24:37.847Z,12.67
2019-01-26T19:27:04.395Z,11.43
2019-01-26T19:29:30.440Z,11.90
2019-01-26T19:31:56.788Z,11.57
2019-01-26T19:34:22.827Z,11.97
2019-01-26T19:36:49.145Z,11.10
2019-01-26T19:39:15.199Z,11.63
2019-01-26T19:41:41.251Z,11.00
2019-01-26T19:44:07.300Z,10.03
2019-01-26T19:46:33.368Z,10.50
2019-01-26T19:48:59.413Z,10.03
2019-01-26T19:51:25.557Z,8.73
2019-01-26T19:53:52.324Z,10.07
2019-01-26T19:56:18.363Z,8.77
2019-01-26T19:58:44.651Z,9.43
2019-01-26T20:01:10.723Z,8.67
2019-01-26T20:03:36.766Z,8.30
2019-01-26T20:06:03.205Z,8.47
2019-01-26T20:08:29.266Z,8.63
2019-01-26T20:10:55.408Z,7.60
2019-01-26T20:13:21.648Z,7.93
2019-01-26T20:15:47.700Z,7.57
2019-01-26T20:18:13.743Z,7.50
2019-01-26T20:20:39.980Z,7.93
2019-01-26T20:23:06.046Z,7.93
2019-01-26T20:25:32.191Z,6.87
2019-01-26T20:27:58.591Z,6.77
2019-01-26T20:30:27.136Z,7.00
2019-01-26T20:32:53.383Z,6.90
2019-01-26T20:35:19.836Z,7.30
2019-01-26T20:37:45.876Z,7.10
2019-01-26T20:40:14.716Z,7.43
2019-01-26T20:42:40.879Z,7.10
2019-01-26T20:45:10.453Z,7.07
2019-01-26T20:47:36.504Z,7.03
2019-01-26T20:50:05.979Z,6.33
2019-01-26T20:52:32.340Z,7.20
2019-01-26T20:54:58.383Z,7.17
2019-01-26T20:57:24.435Z,6.77
2019-01-26T20:59:50.484Z,7.90
2019-01-26T21:02:16.527Z,7.50
2019-01-26T21:04:42.587Z,6.67
2019-01-26T21:07:10.831Z,7.07
2019-01-26T21:09:36.881Z,7.63
2019-01-26T21:12:03.043Z,7.63
2019-01-26T21:14:29.084Z,7.73
2019-01-26T21:16:55.370Z,7.50
2019-01-26T21:19:21.703Z,7.10
2019-01-26T21:21:47.758Z,7.57
2019-01-26T21:24:14.127Z,7.37
2019-01-26T21:26:40.180Z,7.90
2019-01-26T21:29:06.220Z,8.57
2019-01-26T21:31:32.255Z,7.97
2019-01-26T21:33:58.324Z,7.67
2019-01-26T21:36:24.655Z,7.57
2019-01-26T21:38:50.719Z,7.63
2019-01-26T21:41:16.768Z,7.73
2019-01-26T21:43:42.808Z,7.83
2019-01-26T21:46:09.352Z,7.60
2019-01-26T21:48:35.390Z,7.40
2019-01-26T21:51:01.708Z,7.80
2019-01-26T21:53:27.763Z,6.67
2019-01-26T21:55:53.817Z,7.40
2019-01-26T21:58:19.871Z,6.73
2019-01-26T22:00:46.207Z,6.80
2019-01-26T22:03:12.276Z,6.20
2019-01-26T22:05:38.436Z,6.17
2019-01-26T22:08:04.580Z,6.50
2019-01-26T22:10:30.727Z,6.47
2019-01-26T22:12:56.780Z,6.90
2019-01-26T22:15:42.723Z,6.37
2019-01-26T22:18:08.868Z,6.13
2019-01-26T22:20:34.911Z,6.13
2019-01-26T22:23:00.981Z,5.63
2019-01-26T22:25:27.129Z,6.07
2019-01-26T22:27:53.995Z,5.97
2019-01-26T22:30:26.264Z,5.80
2019-01-26T22:32:52.406Z,5.87
2019-01-26T22:35:18.471Z,6.03
2019-01-26T22:37:44.715Z,5.40
2019-01-26T22:40:14.568Z,5.53
2019-01-26T22:42:40.631Z,6.00
2019-01-26T22:45:09.083Z,5.80
2019-01-26T22:47:35.126Z,6.27
2019-01-26T22:50:01.315Z,5.37
2019-01-26T22:52:27.366Z,5.70
2019-01-26T22:54:53.420Z,7.33
2019-01-26T22:57:19.537Z,5.40
2019-01-26T22:59:45.577Z,5.20
2019-01-26T23:02:11.615Z,5.60
2019-01-26T23:04:44.408Z,5.17
2019-01-26T23:07:17.228Z,4.40
2019-01-26T23:09:55.701Z,5.17
2019-01-26T23:12:31.570Z,4.87
2019-01-26T23:15:22.831Z,4.80
2019-01-26T23:18:19.936Z,5.23
2019-01-26T23:20:55.995Z,3.87
2019-01-26T23:23:32.144Z,3.90
2019-01-26T23:26:02.282Z,4.63
2019-01-26T23:28:38.260Z,4.20
2019-01-26T23:31:14.653Z,4.30
2019-01-26T23:33:41.316Z,4.13
2019-01-26T23:36:07.470Z,4.33
2019-01-26T23:38:34.323Z,4.00
2019-01-26T23:41:00.381Z,4.00
2019-01-26T23:43:26.450Z,4.10
2019-01-26T23:45:52.503Z,3.77
2019-01-26T23:48:18.547Z,3.70
2019-01-26T23:50:44.939Z,3.60
2019-01-26T23:53:10.983Z,3.83
2019-01-26T23:55:37.131Z,3.37
2019-01-26T23:58:03.287Z,4.00
